Aérodrome :
LOGIN :

S'inscrire | Disclaimer

   EN    FR    IT 

 










Légende :    VFR   VFR Marginal   IFR   IFR Intensif   IFR Très Intensif
Visi : 
Plafond : 
>= 8 km
>= 3000ft
5 à 8 km
1000 à 3000 ft
1500m à 5 km
500 à 1000 ft
800 à 1500m
200 à 500 ft
< 800m
< 200 ft
Symboles :   Orages  Brouillard  Fortes neiges  Fortes précipitations  Vent > 20 kt
SIGMETs :   Divers  Orages  Givrage  Turbulence  Onde Orograph.  Cendres Volcan.







- Altitude de l'aérodrome : 87 ft
- Code IATA : FSC
- Voir les cartes d'approche


LFKF - Figari

DERNIER METAR :
  • 120200Z AUTO 05003KT 9999 NCD 02/00 Q1018

METARs EXPIRÉS :
  • 120130Z AUTO 05002KT 9999 NCD 02/01 Q1018
  • 120100Z AUTO 05003KT 9999 NCD 03/02 Q1018
  • 120030Z AUTO 05002KT 9999 NCD 04/03 Q1018
  • 120000Z AUTO 02002KT CAVOK 05/03 Q1018
  • 112330Z AUTO VRB02KT 9999 BKN030/// BKN038/// 06/04 Q1018

TAF TAF LFKF
Valide du 12 à 03h jusqu'au 13 à 03h UTC


120200Z 1203/1303 05005KT 9999 SCT033
BECMG 1214/1215 24008KT
Pas de NOTAMs connus pour ce terrain.



MET'MAP, la Météo Aéronautique d'un coup d'oeil ! - Copyright ORBIFLY Décembre 2007 - Disclaimer

ORBIFLY MET'MAP TEAM :

Programmation & Développement : Alexandra Zaïnal
Conception & Développement : Baudouin d'Aumeries
Co-Programmation & Développement : Marc-Olivier Méhu
Soutien technique & logistique : Manuel Goepfert

Contact : metmap@orbifly.com




SOURCES & CREDITS :

   NOAA